createdAt,value
2023-02-26T00:01:42.335Z,-0.01
2023-02-26T00:04:11.905Z,0.03
2023-02-26T00:06:52.932Z,-0.03
2023-02-26T00:09:22.808Z,-0.14
2023-02-26T00:11:51.742Z,-0.28
2023-02-26T00:14:22.072Z,-0.29
2023-02-26T00:16:56.718Z,-0.28
2023-02-26T00:19:25.380Z,-0.28
2023-02-26T00:21:54.135Z,-0.26
2023-02-26T00:24:22.358Z,-0.26
2023-02-26T00:26:50.572Z,-0.27
2023-02-26T00:29:19.571Z,-0.23
2023-02-26T00:31:50.004Z,-0.23
2023-02-26T00:34:18.915Z,-0.24
2023-02-26T00:36:53.279Z,-0.22
2023-02-26T00:39:39.095Z,-0.26
2023-02-26T00:42:08.354Z,-0.17
2023-02-26T00:44:37.374Z,-0.09
2023-02-26T00:47:14.830Z,-0.01
2023-02-26T00:49:56.005Z,0.08
2023-02-26T00:52:33.623Z,0.28
2023-02-26T00:55:02.075Z,0.43
2023-02-26T00:57:30.344Z,0.52
2023-02-26T00:59:58.547Z,0.67
2023-02-26T01:02:28.912Z,0.74
2023-02-26T01:04:57.761Z,0.86
2023-02-26T01:07:28.069Z,0.88
2023-02-26T01:09:56.838Z,0.87
2023-02-26T01:12:25.491Z,0.90
2023-02-26T01:14:54.252Z,1.01
2023-02-26T01:17:26.654Z,1.08
2023-02-26T01:20:03.474Z,1.12
2023-02-26T01:22:37.208Z,1.16
2023-02-26T01:25:10.364Z,1.18
2023-02-26T01:27:40.287Z,1.27
2023-02-26T01:30:10.032Z,1.34
2023-02-26T01:32:45.357Z,1.46
2023-02-26T01:35:24.859Z,1.53
2023-02-26T01:37:58.851Z,1.56
2023-02-26T01:40:46.590Z,1.56
2023-02-26T01:43:21.060Z,1.57
2023-02-26T01:46:01.866Z,1.64
2023-02-26T01:48:38.261Z,1.64
2023-02-26T01:51:08.164Z,1.66
2023-02-26T01:53:36.411Z,1.66
2023-02-26T01:56:10.613Z,1.64
2023-02-26T01:58:39.714Z,1.62
2023-02-26T02:01:08.896Z,1.63
2023-02-26T02:03:40.781Z,1.67
2023-02-26T02:06:16.566Z,1.62
2023-02-26T02:08:45.610Z,1.57
2023-02-26T02:11:15.624Z,1.51
2023-02-26T02:13:57.019Z,1.50
2023-02-26T02:16:33.152Z,1.47
2023-02-26T02:19:15.392Z,1.37
2023-02-26T02:21:57.076Z,1.37
2023-02-26T02:24:35.749Z,1.32
2023-02-26T02:27:15.082Z,1.33
2023-02-26T02:30:11.268Z,1.27
2023-02-26T02:32:45.812Z,1.21
2023-02-26T02:35:19.123Z,1.14
2023-02-26T02:37:52.013Z,1.20
2023-02-26T02:40:23.222Z,1.12
2023-02-26T02:42:56.947Z,1.16
2023-02-26T02:45:31.512Z,1.13
2023-02-26T02:48:07.045Z,1.16
2023-02-26T02:50:39.377Z,1.20
2023-02-26T02:53:12.260Z,1.23
2023-02-26T02:55:48.172Z,1.24
2023-02-26T02:58:21.051Z,1.23
2023-02-26T03:00:52.715Z,1.32
2023-02-26T03:03:28.510Z,1.39
2023-02-26T03:05:57.424Z,1.49
2023-02-26T03:08:30.702Z,1.57
2023-02-26T03:10:59.450Z,1.69
2023-02-26T03:13:28.329Z,1.75
2023-02-26T03:16:21.870Z,1.77
2023-02-26T03:19:04.717Z,1.84
2023-02-26T03:21:44.118Z,1.78
2023-02-26T03:24:19.752Z,1.75
2023-02-26T03:26:53.617Z,1.75
2023-02-26T03:29:36.079Z,1.71
2023-02-26T03:32:08.781Z,1.55
2023-02-26T03:34:42.575Z,1.54
2023-02-26T03:37:18.672Z,1.53
2023-02-26T03:39:51.024Z,1.46
2023-02-26T03:42:25.645Z,1.42
2023-02-26T03:45:02.714Z,1.48
2023-02-26T03:47:34.866Z,1.47
2023-02-26T03:50:07.995Z,1.54
2023-02-26T03:52:49.857Z,1.38
2023-02-26T03:55:48.957Z,1.43
2023-02-26T03:58:35.909Z,1.46
2023-02-26T04:01:30.220Z,1.49
2023-02-26T04:04:02.803Z,1.51
2023-02-26T04:06:33.670Z,1.37
2023-02-26T04:09:03.768Z,1.33
2023-02-26T04:11:38.156Z,1.34
2023-02-26T04:14:06.570Z,1.31
2023-02-26T04:16:39.668Z,1.32
2023-02-26T04:19:08.287Z,1.28
2023-02-26T04:21:38.971Z,1.36
2023-02-26T04:24:07.996Z,1.32
2023-02-26T04:26:37.641Z,1.26
2023-02-26T04:29:05.902Z,1.27
2023-02-26T04:31:34.350Z,1.32
2023-02-26T04:34:02.667Z,1.24
2023-02-26T04:36:31.264Z,1.08
2023-02-26T04:39:01.305Z,1.10
2023-02-26T04:41:29.819Z,1.09
2023-02-26T04:43:58.376Z,1.07
2023-02-26T04:46:30.069Z,1.06
2023-02-26T04:48:59.085Z,1.07
2023-02-26T04:51:27.459Z,1.07
2023-02-26T04:53:55.750Z,1.02
2023-02-26T04:56:26.922Z,0.99
2023-02-26T04:58:55.350Z,0.95
2023-02-26T05:01:28.394Z,0.89
2023-02-26T05:03:57.590Z,0.80
2023-02-26T05:06:26.518Z,0.81
2023-02-26T05:08:54.946Z,0.83
2023-02-26T05:11:23.610Z,0.83
2023-02-26T05:13:53.252Z,0.84
2023-02-26T05:16:21.591Z,0.79
2023-02-26T05:18:49.884Z,0.77
2023-02-26T05:21:19.424Z,0.77
2023-02-26T05:23:47.872Z,0.74
2023-02-26T05:26:16.178Z,0.77
2023-02-26T05:28:45.824Z,0.76
2023-02-26T05:31:15.852Z,0.74
2023-02-26T05:33:44.184Z,0.73
2023-02-26T05:36:12.750Z,0.74
2023-02-26T05:38:41.021Z,0.74
2023-02-26T05:41:09.299Z,0.64
2023-02-26T05:43:37.966Z,0.59
2023-02-26T05:46:06.678Z,0.71
2023-02-26T05:48:36.315Z,0.72
2023-02-26T05:51:04.756Z,0.67
2023-02-26T05:53:32.958Z,0.69
2023-02-26T05:56:01.208Z,0.67
2023-02-26T05:58:31.378Z,0.55
2023-02-26T06:00:59.871Z,0.49
2023-02-26T06:03:28.158Z,0.51
2023-02-26T06:05:57.782Z,0.52
2023-02-26T06:08:26.013Z,0.51
2023-02-26T06:10:54.236Z,0.45
2023-02-26T06:13:22.551Z,0.43
2023-02-26T06:15:52.211Z,0.49
2023-02-26T06:18:20.619Z,0.43
2023-02-26T06:20:48.848Z,0.36
2023-02-26T06:23:18.439Z,0.36
2023-02-26T06:25:47.120Z,0.32
2023-02-26T06:28:15.391Z,0.33
2023-02-26T06:30:43.626Z,0.30
2023-02-26T06:33:12.022Z,0.29
2023-02-26T06:35:40.294Z,0.20
2023-02-26T06:38:08.572Z,0.17
2023-02-26T06:40:38.191Z,0.27
2023-02-26T06:43:06.453Z,0.22
2023-02-26T06:45:34.713Z,0.19
2023-02-26T06:48:03.316Z,0.28
2023-02-26T06:50:31.592Z,0.17
2023-02-26T06:52:59.814Z,0.15
2023-02-26T06:55:28.330Z,0.15
2023-02-26T06:57:58.527Z,0.20
2023-02-26T07:00:27.286Z,0.22
2023-02-26T07:02:55.564Z,0.27
2023-02-26T07:05:24.113Z,0.29
2023-02-26T07:07:52.335Z,0.25
2023-02-26T07:10:21.542Z,0.24
2023-02-26T07:12:49.762Z,0.35
2023-02-26T07:15:19.656Z,0.36
2023-02-26T07:17:47.943Z,0.34
2023-02-26T07:20:16.368Z,0.30
2023-02-26T07:22:44.668Z,0.36
2023-02-26T07:25:13.995Z,0.45
2023-02-26T07:27:43.868Z,0.45
2023-02-26T07:30:13.441Z,0.55
2023-02-26T07:32:43.485Z,0.61
2023-02-26T07:35:12.053Z,0.66
2023-02-26T07:37:40.278Z,0.68
2023-02-26T07:40:09.912Z,0.68
2023-02-26T07:42:38.193Z,0.73
2023-02-26T07:45:08.102Z,0.84
2023-02-26T07:47:36.546Z,0.87
2023-02-26T07:50:07.035Z,0.94
2023-02-26T07:52:35.422Z,1.01
2023-02-26T07:55:03.600Z,1.08
2023-02-26T07:57:31.844Z,1.13
2023-02-26T08:00:00.111Z,1.16
2023-02-26T08:02:28.341Z,1.13
2023-02-26T08:04:57.008Z,1.32
2023-02-26T08:07:26.780Z,1.38
2023-02-26T08:09:54.981Z,1.45
2023-02-26T08:12:23.263Z,1.52
2023-02-26T08:14:51.489Z,1.56
2023-02-26T08:17:19.730Z,1.65
2023-02-26T08:19:47.962Z,1.67
2023-02-26T08:22:16.245Z,1.84
2023-02-26T08:24:45.864Z,1.94
2023-02-26T08:27:14.083Z,1.78
2023-02-26T08:29:42.846Z,1.98
2023-02-26T08:32:11.244Z,1.99
2023-02-26T08:34:40.542Z,1.96
2023-02-26T08:37:11.545Z,1.93
2023-02-26T08:39:40.819Z,1.92
2023-02-26T08:42:12.372Z,2.03
2023-02-26T08:44:41.541Z,2.15
2023-02-26T08:47:10.045Z,2.16
2023-02-26T08:49:39.113Z,2.17
2023-02-26T08:52:07.681Z,2.32
2023-02-26T08:54:35.848Z,2.36
2023-02-26T08:57:04.106Z,2.24
2023-02-26T08:59:33.780Z,2.38
2023-02-26T09:02:02.150Z,2.30
2023-02-26T09:04:31.269Z,2.43
2023-02-26T09:06:59.571Z,2.46
2023-02-26T09:09:27.963Z,2.58
2023-02-26T09:11:56.255Z,2.71
2023-02-26T09:14:24.489Z,2.54
2023-02-26T09:16:54.089Z,2.65
2023-02-26T09:19:22.593Z,2.73
2023-02-26T09:21:50.867Z,2.78
2023-02-26T09:24:19.392Z,2.76
2023-02-26T09:26:47.647Z,2.96
2023-02-26T09:29:15.863Z,2.91
2023-02-26T09:31:44.280Z,2.99
2023-02-26T09:34:14.668Z,3.05
2023-02-26T09:36:43.948Z,3.10
2023-02-26T09:39:12.382Z,3.11
2023-02-26T09:41:44.073Z,3.31
2023-02-26T09:44:20.150Z,3.32
2023-02-26T09:46:56.141Z,3.29
2023-02-26T09:49:33.970Z,3.34
2023-02-26T09:52:09.897Z,3.41
2023-02-26T09:54:45.028Z,3.55
2023-02-26T09:57:22.310Z,3.52
2023-02-26T09:59:52.113Z,3.56
2023-02-26T10:02:30.238Z,3.61
2023-02-26T10:05:09.269Z,3.48
2023-02-26T10:07:45.368Z,3.63
2023-02-26T10:10:20.635Z,3.68
2023-02-26T10:12:52.398Z,3.72
2023-02-26T10:15:24.848Z,3.76
2023-02-26T10:18:06.039Z,3.80
2023-02-26T10:20:40.406Z,3.88
2023-02-26T10:23:20.204Z,3.93
2023-02-26T10:25:51.019Z,4.03
2023-02-26T10:28:41.032Z,4.03
2023-02-26T10:31:19.575Z,4.04
2023-02-26T10:33:54.202Z,4.05
2023-02-26T10:36:30.897Z,4.10
2023-02-26T10:39:04.819Z,4.22
2023-02-26T10:41:37.989Z,4.44
2023-02-26T10:44:15.109Z,4.36
2023-02-26T10:46:53.143Z,4.54
2023-02-26T10:49:49.173Z,4.22
2023-02-26T10:52:20.733Z,4.21
2023-02-26T10:55:03.604Z,4.20
2023-02-26T10:57:35.561Z,4.19
2023-02-26T11:00:11.411Z,4.19
2023-02-26T11:02:43.508Z,4.33
2023-02-26T11:05:17.579Z,4.62
2023-02-26T11:07:50.843Z,4.47
2023-02-26T11:10:22.157Z,4.82
2023-02-26T11:12:51.579Z,5.23
2023-02-26T11:15:21.879Z,5.12
2023-02-26T11:17:54.869Z,5.26
2023-02-26T11:20:31.940Z,5.32
2023-02-26T11:23:03.951Z,5.16
2023-02-26T11:25:35.936Z,5.11
2023-02-26T11:28:07.986Z,5.13
2023-02-26T11:30:39.123Z,5.27
2023-02-26T11:33:18.210Z,5.31
2023-02-26T11:35:47.581Z,5.37
2023-02-26T11:38:24.147Z,5.37
2023-02-26T11:40:57.074Z,5.48
2023-02-26T11:43:28.447Z,5.54
2023-02-26T11:46:00.767Z,5.91
2023-02-26T11:48:35.970Z,5.66
2023-02-26T11:51:07.032Z,5.62
2023-02-26T11:53:38.242Z,5.51
2023-02-26T11:56:12.742Z,5.45
2023-02-26T11:58:44.625Z,5.43
2023-02-26T12:01:16.698Z,5.43
2023-02-26T12:03:48.180Z,5.53
2023-02-26T12:06:20.333Z,5.33
2023-02-26T12:08:50.368Z,5.35
2023-02-26T12:11:46.376Z,5.42
2023-02-26T12:14:31.553Z,5.45
2023-02-26T12:17:10.914Z,5.69
2023-02-26T12:19:47.662Z,5.75
2023-02-26T12:22:35.438Z,5.77
2023-02-26T12:25:21.782Z,5.56
2023-02-26T12:28:16.332Z,5.21
2023-02-26T12:31:04.303Z,5.20
2023-02-26T12:33:46.777Z,5.53
2023-02-26T12:36:28.293Z,5.69
2023-02-26T12:39:12.916Z,5.81
2023-02-26T12:41:58.214Z,5.83
2023-02-26T12:44:48.316Z,6.13
2023-02-26T12:47:36.174Z,6.34
2023-02-26T12:50:19.266Z,6.26
2023-02-26T12:53:19.792Z,6.23
2023-02-26T12:56:01.956Z,5.91
2023-02-26T12:59:05.372Z,5.93
2023-02-26T13:02:01.101Z,6.11
2023-02-26T13:05:08.654Z,6.14
2023-02-26T13:07:54.408Z,6.13
2023-02-26T13:10:29.844Z,6.20
2023-02-26T13:13:11.690Z,6.50
2023-02-26T13:16:01.099Z,6.10
2023-02-26T13:18:38.293Z,6.30
2023-02-26T13:21:10.213Z,6.50
2023-02-26T13:23:52.510Z,6.78
2023-02-26T13:26:22.457Z,6.76
2023-02-26T13:28:56.008Z,6.55
2023-02-26T13:31:30.265Z,6.57
2023-02-26T13:34:03.785Z,6.41
2023-02-26T13:36:35.183Z,6.68
2023-02-26T13:39:23.917Z,6.76
2023-02-26T13:42:00.431Z,6.64
2023-02-26T13:44:38.193Z,6.65
2023-02-26T13:47:30.857Z,6.90
2023-02-26T13:50:23.416Z,6.93
2023-02-26T13:52:54.408Z,6.70
2023-02-26T13:55:53.623Z,6.73
2023-02-26T13:58:34.911Z,6.51
2023-02-26T14:01:09.749Z,6.80
2023-02-26T14:03:46.607Z,6.64
2023-02-26T14:06:42.175Z,6.71
2023-02-26T14:09:36.934Z,6.64
2023-02-26T14:12:06.528Z,6.52
2023-02-26T14:14:41.242Z,6.55
2023-02-26T14:17:30.854Z,6.23
2023-02-26T14:20:20.809Z,6.33
2023-02-26T14:22:51.604Z,6.23
2023-02-26T14:25:23.831Z,6.42
2023-02-26T14:27:52.394Z,6.38
2023-02-26T14:30:29.575Z,6.43
2023-02-26T14:33:09.913Z,6.64
2023-02-26T14:35:44.103Z,6.50
2023-02-26T14:38:18.008Z,6.14
2023-02-26T14:40:50.006Z,6.34
2023-02-26T14:43:22.892Z,6.43
2023-02-26T14:45:51.916Z,6.29
2023-02-26T14:48:25.192Z,6.30
2023-02-26T14:51:07.607Z,6.41
2023-02-26T14:54:01.666Z,6.15
2023-02-26T14:56:44.300Z,6.01
2023-02-26T14:59:29.970Z,6.28
2023-02-26T15:02:16.651Z,6.15
2023-02-26T15:05:25.824Z,6.51
2023-02-26T15:08:10.962Z,6.39
2023-02-26T15:10:52.980Z,6.24
2023-02-26T15:13:37.992Z,5.97
2023-02-26T15:16:19.753Z,5.95
2023-02-26T15:19:00.808Z,5.84
2023-02-26T15:21:37.927Z,5.81
2023-02-26T15:24:12.022Z,5.95
2023-02-26T15:26:46.566Z,5.99
2023-02-26T15:29:16.427Z,6.60
2023-02-26T15:31:46.395Z,6.78
2023-02-26T15:34:17.292Z,6.75
2023-02-26T15:36:47.026Z,6.21
2023-02-26T15:39:18.692Z,6.07
2023-02-26T15:41:49.400Z,6.12
2023-02-26T15:44:20.943Z,6.41
2023-02-26T15:46:58.092Z,6.06
2023-02-26T15:49:30.524Z,5.87
2023-02-26T15:52:00.560Z,5.56
2023-02-26T15:54:36.685Z,5.53
2023-02-26T15:57:05.583Z,5.48
2023-02-26T15:59:35.543Z,5.40
2023-02-26T16:02:04.769Z,5.42
2023-02-26T16:04:36.771Z,5.50
2023-02-26T16:07:05.159Z,5.52
2023-02-26T16:09:36.644Z,5.39
2023-02-26T16:12:08.950Z,5.31
2023-02-26T16:14:40.791Z,5.28
2023-02-26T16:17:14.169Z,5.16
2023-02-26T16:19:47.242Z,5.13
2023-02-26T16:22:22.249Z,5.12
2023-02-26T16:24:56.125Z,5.01
2023-02-26T16:27:28.039Z,5.10
2023-02-26T16:29:58.992Z,5.04
2023-02-26T16:32:30.557Z,5.06
2023-02-26T16:35:02.181Z,4.96
2023-02-26T16:37:36.155Z,4.90
2023-02-26T16:40:18.987Z,4.93
2023-02-26T16:42:55.136Z,4.94
2023-02-26T16:45:49.258Z,4.90
2023-02-26T16:48:22.587Z,4.79
2023-02-26T16:50:57.897Z,4.68
2023-02-26T16:53:34.987Z,4.66
2023-02-26T16:56:06.509Z,4.65
2023-02-26T16:58:35.891Z,4.71
2023-02-26T17:01:09.179Z,4.59
2023-02-26T17:03:40.610Z,4.53
2023-02-26T17:06:11.781Z,4.51
2023-02-26T17:08:49.174Z,4.45
2023-02-26T17:11:25.308Z,4.47
2023-02-26T17:14:10.128Z,4.45
2023-02-26T17:16:38.445Z,4.41
2023-02-26T17:19:07.067Z,4.36
2023-02-26T17:21:37.141Z,4.30
2023-02-26T17:24:05.622Z,4.19
2023-02-26T17:26:35.407Z,4.20
2023-02-26T17:29:03.936Z,4.17
2023-02-26T17:31:32.229Z,4.23
2023-02-26T17:34:00.517Z,4.16
2023-02-26T17:36:29.850Z,4.14
2023-02-26T17:38:58.117Z,4.13
2023-02-26T17:41:28.504Z,4.14
2023-02-26T17:43:58.428Z,4.00
2023-02-26T17:46:26.892Z,3.91
2023-02-26T17:48:55.135Z,3.85
2023-02-26T17:51:23.582Z,3.74
2023-02-26T17:53:51.846Z,3.70
2023-02-26T17:56:26.699Z,3.64
2023-02-26T17:58:56.798Z,3.63
2023-02-26T18:01:28.620Z,3.55
2023-02-26T18:03:57.778Z,3.50
2023-02-26T18:06:26.448Z,3.48
2023-02-26T18:08:54.735Z,3.49
2023-02-26T18:11:25.933Z,3.45
2023-02-26T18:13:55.406Z,3.42
2023-02-26T18:16:29.310Z,3.42
2023-02-26T18:18:58.616Z,3.47
2023-02-26T18:21:27.579Z,3.48
2023-02-26T18:23:57.568Z,3.42
2023-02-26T18:26:27.848Z,3.34
2023-02-26T18:28:56.720Z,3.36
2023-02-26T18:31:34.420Z,3.36
2023-02-26T18:34:04.850Z,3.42
2023-02-26T18:36:37.797Z,3.32
2023-02-26T18:39:08.651Z,3.30
2023-02-26T18:41:37.030Z,3.30
2023-02-26T18:44:05.372Z,3.25
2023-02-26T18:46:40.152Z,3.26
2023-02-26T18:49:08.614Z,3.21
2023-02-26T18:51:36.939Z,3.17
2023-02-26T18:54:05.393Z,3.15
2023-02-26T18:56:33.771Z,3.12
2023-02-26T18:59:02.076Z,3.02
2023-02-26T19:01:30.733Z,2.97
2023-02-26T19:04:00.622Z,2.97
2023-02-26T19:06:28.900Z,3.00
2023-02-26T19:08:57.178Z,3.00
2023-02-26T19:11:25.685Z,2.91
2023-02-26T19:13:54.178Z,2.96
2023-02-26T19:16:23.237Z,2.95
2023-02-26T19:18:52.135Z,2.98
2023-02-26T19:21:21.724Z,2.99
2023-02-26T19:23:49.977Z,2.98
2023-02-26T19:26:18.439Z,2.96
2023-02-26T19:28:47.110Z,2.99
2023-02-26T19:31:16.784Z,2.97
2023-02-26T19:33:45.171Z,2.93
2023-02-26T19:36:13.633Z,2.95
2023-02-26T19:38:47.439Z,2.93
2023-02-26T19:41:18.808Z,2.94
2023-02-26T19:43:48.808Z,2.83
2023-02-26T19:46:17.344Z,2.91
2023-02-26T19:48:46.873Z,2.98
2023-02-26T19:51:15.215Z,3.00
2023-02-26T19:53:45.024Z,3.01
2023-02-26T19:56:14.821Z,2.98
2023-02-26T19:58:44.190Z,2.95
2023-02-26T20:01:12.571Z,2.91
2023-02-26T20:03:40.886Z,2.94
2023-02-26T20:06:10.516Z,2.99
2023-02-26T20:08:40.232Z,2.98
2023-02-26T20:11:10.154Z,2.96
2023-02-26T20:13:38.871Z,2.94
2023-02-26T20:16:10.251Z,2.87
2023-02-26T20:18:39.968Z,2.95
2023-02-26T20:21:10.256Z,2.91
2023-02-26T20:23:40.877Z,3.09
2023-02-26T20:26:12.455Z,3.02
2023-02-26T20:28:43.305Z,3.00
2023-02-26T20:31:12.768Z,2.98
2023-02-26T20:33:41.329Z,2.93
2023-02-26T20:36:10.814Z,2.90
2023-02-26T20:38:40.540Z,2.84
2023-02-26T20:41:10.515Z,2.83
2023-02-26T20:43:39.369Z,2.80
2023-02-26T20:46:07.806Z,2.60
2023-02-26T20:48:40.419Z,2.64
2023-02-26T20:51:11.897Z,2.57
2023-02-26T20:53:41.200Z,2.56
2023-02-26T20:56:10.968Z,2.67
2023-02-26T20:58:41.307Z,2.60
2023-02-26T21:01:09.637Z,2.58
2023-02-26T21:03:38.020Z,2.54
2023-02-26T21:06:08.294Z,2.51
2023-02-26T21:08:36.545Z,2.46
2023-02-26T21:11:05.066Z,2.42
2023-02-26T21:13:34.934Z,2.42
2023-02-26T21:16:04.025Z,2.46
2023-02-26T21:18:33.354Z,2.41
2023-02-26T21:21:04.936Z,2.35
2023-02-26T21:23:34.036Z,2.35
2023-02-26T21:26:02.263Z,2.30
2023-02-26T21:28:30.578Z,2.29
2023-02-26T21:31:00.346Z,2.29
2023-02-26T21:33:28.682Z,2.29
2023-02-26T21:35:57.226Z,2.24
2023-02-26T21:38:25.561Z,2.15
2023-02-26T21:40:54.525Z,2.12
2023-02-26T21:43:22.911Z,2.14
2023-02-26T21:45:51.215Z,2.16
2023-02-26T21:48:20.946Z,2.07
2023-02-26T21:50:52.029Z,1.99
2023-02-26T21:53:20.330Z,1.93
2023-02-26T21:55:48.582Z,1.91
2023-02-26T21:58:16.838Z,1.88
2023-02-26T22:00:45.654Z,1.87
2023-02-26T22:03:13.977Z,1.82
2023-02-26T22:05:43.908Z,1.81
2023-02-26T22:08:12.248Z,1.72
2023-02-26T22:10:40.530Z,1.76
2023-02-26T22:13:08.768Z,1.76
2023-02-26T22:15:37.024Z,1.67
2023-02-26T22:18:05.781Z,1.73
2023-02-26T22:20:34.052Z,1.73
2023-02-26T22:23:04.669Z,1.76
2023-02-26T22:25:33.433Z,1.72
2023-02-26T22:28:01.740Z,1.70
2023-02-26T22:30:30.031Z,1.66
2023-02-26T22:32:58.400Z,1.62
2023-02-26T22:35:26.656Z,1.64
2023-02-26T22:37:54.944Z,1.54
2023-02-26T22:40:26.290Z,1.45
2023-02-26T22:42:54.614Z,1.49
2023-02-26T22:45:22.865Z,1.40
2023-02-26T22:47:51.431Z,1.50
2023-02-26T22:50:20.027Z,1.43
2023-02-26T22:52:49.346Z,1.49
2023-02-26T22:55:18.068Z,1.43
2023-02-26T22:57:47.679Z,1.37
2023-02-26T23:00:20.042Z,1.33
2023-02-26T23:02:49.633Z,1.38
2023-02-26T23:05:19.538Z,1.39
2023-02-26T23:07:48.938Z,1.39
2023-02-26T23:10:21.496Z,1.33
2023-02-26T23:12:51.146Z,1.36
2023-02-26T23:15:19.585Z,1.34
2023-02-26T23:17:47.824Z,1.36
2023-02-26T23:20:16.973Z,1.34
2023-02-26T23:22:45.337Z,1.35
2023-02-26T23:25:13.854Z,1.36
2023-02-26T23:27:42.590Z,1.28
2023-02-26T23:30:13.688Z,1.24
2023-02-26T23:32:42.029Z,1.29
2023-02-26T23:35:11.278Z,1.35
2023-02-26T23:37:39.639Z,1.45
2023-02-26T23:40:09.399Z,1.41
2023-02-26T23:42:39.348Z,1.33
2023-02-26T23:45:08.894Z,1.32
2023-02-26T23:47:38.762Z,1.20
2023-02-26T23:50:08.382Z,1.18
2023-02-26T23:52:36.845Z,1.18
2023-02-26T23:55:06.296Z,1.19
2023-02-26T23:57:34.556Z,1.12
